CJT151 KBNA-MMSM
Flight info
| Callsign | CJT151 |
|---|---|
| Flight time | 2h 55m |
| Altitude | 36000 |
| Route | DRURY4 JALAR DCT MEI DCT TBD M575 CLONN UM575 TAM DCT VITOS |
| Aircraft | B763/H-SDE3FGHIM3RWXY/S |
Departure
| Time | 2026-04-26 08:10 |
|---|---|
| Airport | Nashville International Airport (KBNA) |
Arrival
| Time | 2026-04-26 11:06 |
|---|---|
| Airport | Felipe Ángeles International Airport (MMSM) |
| Time | Latitude | Longitude | Altitude | Speed | Heading |
|---|---|---|---|---|---|
| 2026-04-26 07:49 | 36.12896 | -86.68561 | 613 ft | 0 kts | 287° |
| 2026-04-26 08:02 | 36.12895 | -86.68556 | 613 ft | 2 kts | 287° |
| 2026-04-26 08:03 | 36.12890 | -86.68536 | 613 ft | 3 kts | 287° |
| 2026-04-26 08:03 | 36.12888 | -86.68513 | 613 ft | 3 kts | 248° |
| 2026-04-26 08:03 | 36.12902 | -86.68497 | 613 ft | 3 kts | 197° |
| 2026-04-26 08:03 | 36.12908 | -86.68495 | 613 ft | 0 kts | 196° |
| 2026-04-26 08:05 | 36.12905 | -86.68496 | 613 ft | 1 kts | 196° |
| 2026-04-26 08:05 | 36.12888 | -86.68502 | 613 ft | 4 kts | 194° |
| 2026-04-26 08:05 | 36.12856 | -86.68509 | 613 ft | 6 kts | 187° |
| 2026-04-26 08:06 | 36.12808 | -86.68512 | 613 ft | 8 kts | 178° |
| 2026-04-26 08:06 | 36.12753 | -86.68484 | 613 ft | 10 kts | 136° |
| 2026-04-26 08:06 | 36.12691 | -86.68446 | 613 ft | 11 kts | 188° |
| 2026-04-26 08:06 | 36.12612 | -86.68475 | 613 ft | 13 kts | 198° |
| 2026-04-26 08:07 | 36.12524 | -86.68510 | 613 ft | 14 kts | 198° |
| 2026-04-26 08:07 | 36.12428 | -86.68548 | 613 ft | 15 kts | 198° |
| 2026-04-26 08:07 | 36.12324 | -86.68589 | 613 ft | 16 kts | 198° |
| 2026-04-26 08:07 | 36.12214 | -86.68632 | 613 ft | 17 kts | 198° |
| 2026-04-26 08:08 | 36.12097 | -86.68678 | 613 ft | 18 kts | 198° |
| 2026-04-26 08:08 | 36.11973 | -86.68727 | 613 ft | 19 kts | 198° |
| 2026-04-26 08:08 | 36.11855 | -86.68773 | 613 ft | 13 kts | 195° |
| 2026-04-26 08:08 | 36.11802 | -86.68737 | 613 ft | 7 kts | 103° |
| 2026-04-26 08:09 | 36.11786 | -86.68676 | 613 ft | 8 kts | 108° |
| 2026-04-26 08:09 | 36.11798 | -86.68639 | 613 ft | 3 kts | 19° |
| 2026-04-26 08:09 | 36.11913 | -86.68591 | 613 ft | 43 kts | 18° |
| 2026-04-26 08:09 | 36.12379 | -86.68410 | 613 ft | 96 kts | 18° |
| 2026-04-26 08:10 | 36.13163 | -86.68106 | 613 ft | 141 kts | 17° |
| 2026-04-26 08:10 | 36.14203 | -86.67718 | 758 ft | 164 kts | 17° |
| 2026-04-26 08:10 | 36.15315 | -86.67438 | 1310 ft | 163 kts | 6° |
| 2026-04-26 08:10 | 36.16467 | -86.67494 | 1763 ft | 170 kts | 355° |
| 2026-04-26 08:11 | 36.17621 | -86.67790 | 2272 ft | 171 kts | 345° |
| 2026-04-26 08:11 | 36.18779 | -86.68237 | 2765 ft | 177 kts | 345° |
| 2026-04-26 08:11 | 36.19961 | -86.68709 | 3319 ft | 182 kts | 346° |
| 2026-04-26 08:11 | 36.21162 | -86.69181 | 3908 ft | 186 kts | 345° |
| 2026-04-26 08:12 | 36.22475 | -86.69678 | 4177 ft | 210 kts | 346° |
| 2026-04-26 08:12 | 36.23946 | -86.70193 | 4479 ft | 230 kts | 346° |
| 2026-04-26 08:12 | 36.25535 | -86.70706 | 5022 ft | 240 kts | 347° |
| 2026-04-26 08:12 | 36.27102 | -86.71445 | 5667 ft | 246 kts | 330° |
| 2026-04-26 08:13 | 36.28261 | -86.72981 | 6345 ft | 250 kts | 302° |
| 2026-04-26 08:13 | 36.28729 | -86.75085 | 6756 ft | 264 kts | 275° |
| 2026-04-26 08:13 | 36.28510 | -86.77400 | 6922 ft | 277 kts | 258° |
| 2026-04-26 08:13 | 36.27988 | -86.79719 | 6974 ft | 282 kts | 253° |
| 2026-04-26 08:14 | 36.27386 | -86.82036 | 6996 ft | 284 kts | 252° |
| 2026-04-26 08:14 | 36.26753 | -86.84355 | 7572 ft | 286 kts | 249° |
| 2026-04-26 08:14 | 36.25697 | -86.86408 | 8529 ft | 286 kts | 227° |
| 2026-04-26 08:14 | 36.24041 | -86.87761 | 9321 ft | 290 kts | 203° |
| 2026-04-26 08:15 | 36.22075 | -86.88396 | 10090 ft | 296 kts | 191° |
| 2026-04-26 08:15 | 36.19975 | -86.88769 | 10558 ft | 315 kts | 187° |
| 2026-04-26 08:15 | 36.17720 | -86.89106 | 10762 ft | 341 kts | 188° |
| 2026-04-26 08:15 | 36.15302 | -86.89608 | 10935 ft | 365 kts | 192° |
| 2026-04-26 08:16 | 36.12789 | -86.90381 | 11298 ft | 381 kts | 196° |
| 2026-04-26 08:16 | 36.10231 | -86.91370 | 11880 ft | 390 kts | 199° |
| 2026-04-26 08:16 | 36.07657 | -86.92486 | 12566 ft | 396 kts | 201° |
| 2026-04-26 08:16 | 36.05063 | -86.93656 | 13281 ft | 400 kts | 201° |
| 2026-04-26 08:17 | 36.02436 | -86.94828 | 13992 ft | 404 kts | 201° |
| 2026-04-26 08:17 | 35.99764 | -86.95981 | 14691 ft | 409 kts | 201° |
| 2026-04-26 08:17 | 35.97061 | -86.97125 | 15376 ft | 413 kts | 201° |
| 2026-04-26 08:17 | 35.94341 | -86.98265 | 16059 ft | 417 kts | 201° |
| 2026-04-26 08:18 | 35.91590 | -86.99412 | 16720 ft | 421 kts | 201° |
| 2026-04-26 08:18 | 35.88808 | -87.00569 | 17375 ft | 425 kts | 201° |
| 2026-04-26 08:18 | 35.86004 | -87.01738 | 18040 ft | 428 kts | 202° |
| 2026-04-26 08:18 | 35.83183 | -87.02926 | 18710 ft | 431 kts | 202° |
| 2026-04-26 08:19 | 35.80347 | -87.04136 | 19376 ft | 434 kts | 202° |
| 2026-04-26 08:19 | 35.77563 | -87.05559 | 19964 ft | 434 kts | 210° |
| 2026-04-26 08:19 | 35.74970 | -87.07438 | 20541 ft | 435 kts | 217° |
| 2026-04-26 08:19 | 35.72463 | -87.09542 | 21097 ft | 439 kts | 219° |
| 2026-04-26 08:20 | 35.69967 | -87.11711 | 21643 ft | 442 kts | 219° |
| 2026-04-26 08:20 | 35.67445 | -87.13889 | 22169 ft | 447 kts | 218° |
| 2026-04-26 08:20 | 35.64874 | -87.16049 | 22678 ft | 451 kts | 217° |
| 2026-04-26 08:20 | 35.62217 | -87.18153 | 23182 ft | 457 kts | 215° |
| 2026-04-26 08:21 | 35.59449 | -87.20066 | 23684 ft | 462 kts | 211° |
| 2026-04-26 08:21 | 35.56567 | -87.21875 | 24184 ft | 467 kts | 210° |
| 2026-04-26 08:21 | 35.53664 | -87.23632 | 24702 ft | 470 kts | 209° |
| 2026-04-26 08:21 | 35.50585 | -87.25050 | 25235 ft | 477 kts | 201° |
| 2026-04-26 08:22 | 35.47412 | -87.26283 | 25740 ft | 478 kts | 203° |
| 2026-04-26 08:22 | 35.44386 | -87.27933 | 26246 ft | 476 kts | 211° |
| 2026-04-26 08:22 | 35.41553 | -87.29967 | 26885 ft | 471 kts | 216° |
| 2026-04-26 08:22 | 35.38796 | -87.32068 | 27639 ft | 466 kts | 217° |
| 2026-04-26 08:23 | 35.36027 | -87.34085 | 28360 ft | 464 kts | 216° |
| 2026-04-26 08:23 | 35.33222 | -87.36018 | 28924 ft | 464 kts | 215° |
| 2026-04-26 08:23 | 35.30383 | -87.37905 | 29443 ft | 464 kts | 215° |
| 2026-04-26 08:23 | 35.27548 | -87.39784 | 29929 ft | 464 kts | 215° |
| 2026-04-26 08:24 | 35.24730 | -87.41659 | 30387 ft | 465 kts | 216° |
| 2026-04-26 08:24 | 35.21870 | -87.43520 | 30834 ft | 465 kts | 215° |
| 2026-04-26 08:24 | 35.19006 | -87.45339 | 31279 ft | 465 kts | 215° |
| 2026-04-26 08:24 | 35.16136 | -87.47147 | 31735 ft | 464 kts | 215° |
| 2026-04-26 08:25 | 35.13288 | -87.48960 | 32187 ft | 462 kts | 216° |
| 2026-04-26 08:25 | 35.10454 | -87.50780 | 32630 ft | 460 kts | 216° |
| 2026-04-26 08:25 | 35.07639 | -87.52606 | 33060 ft | 458 kts | 217° |
| 2026-04-26 08:25 | 35.04847 | -87.54439 | 33475 ft | 456 kts | 217° |
| 2026-04-26 08:26 | 35.02076 | -87.56275 | 33955 ft | 452 kts | 219° |
| 2026-04-26 08:26 | 34.99281 | -87.57988 | 34387 ft | 454 kts | 215° |
| 2026-04-26 08:26 | 34.96358 | -87.59490 | 34772 ft | 456 kts | 212° |
| 2026-04-26 08:26 | 34.93401 | -87.60873 | 35119 ft | 456 kts | 211° |
| 2026-04-26 08:27 | 34.90437 | -87.62216 | 35425 ft | 456 kts | 211° |
| 2026-04-26 08:27 | 34.87480 | -87.63544 | 35643 ft | 456 kts | 211° |
| 2026-04-26 08:27 | 34.84506 | -87.64930 | 35780 ft | 458 kts | 212° |
| 2026-04-26 08:27 | 34.81548 | -87.66340 | 35873 ft | 461 kts | 212° |
| 2026-04-26 08:28 | 34.75582 | -87.69212 | 35909 ft | 462 kts | 212° |
| 2026-04-26 08:28 | 34.69567 | -87.72051 | 35910 ft | 466 kts | 212° |
| 2026-04-26 08:29 | 34.63561 | -87.74907 | 35913 ft | 465 kts | 213° |
| 2026-04-26 08:29 | 34.57578 | -87.77851 | 35916 ft | 464 kts | 213° |
| 2026-04-26 08:30 | 34.51626 | -87.80777 | 35922 ft | 463 kts | 213° |
| 2026-04-26 08:30 | 34.45655 | -87.83663 | 35924 ft | 463 kts | 211° |
| 2026-04-26 08:31 | 34.39655 | -87.86491 | 35929 ft | 463 kts | 210° |
| 2026-04-26 08:31 | 34.33646 | -87.89273 | 35930 ft | 464 kts | 210° |
| 2026-04-26 08:32 | 34.27643 | -87.92076 | 35930 ft | 463 kts | 211° |
| 2026-04-26 08:32 | 34.21680 | -87.94988 | 35931 ft | 463 kts | 211° |
| 2026-04-26 08:33 | 34.15714 | -87.97861 | 35931 ft | 463 kts | 211° |
| 2026-04-26 08:33 | 34.09724 | -88.00706 | 35931 ft | 464 kts | 211° |
| 2026-04-26 08:34 | 34.03724 | -88.03523 | 35930 ft | 464 kts | 210° |
| 2026-04-26 08:34 | 33.97717 | -88.06313 | 35931 ft | 464 kts | 210° |
| 2026-04-26 08:35 | 33.91710 | -88.09103 | 35933 ft | 463 kts | 211° |
| 2026-04-26 08:35 | 33.85748 | -88.11983 | 35934 ft | 463 kts | 211° |
| 2026-04-26 08:36 | 33.79786 | -88.14869 | 35934 ft | 463 kts | 211° |
| 2026-04-26 08:36 | 33.73811 | -88.17724 | 35932 ft | 463 kts | 211° |
| 2026-04-26 08:37 | 33.67824 | -88.20554 | 35917 ft | 464 kts | 211° |
| 2026-04-26 08:37 | 33.61823 | -88.23361 | 35909 ft | 464 kts | 210° |
| 2026-04-26 08:38 | 33.55802 | -88.26161 | 35911 ft | 468 kts | 210° |
| 2026-04-26 08:38 | 33.49729 | -88.29018 | 35924 ft | 471 kts | 210° |
| 2026-04-26 08:39 | 33.43640 | -88.31879 | 35929 ft | 471 kts | 210° |
| 2026-04-26 08:39 | 33.37515 | -88.34669 | 35933 ft | 472 kts | 209° |
| 2026-04-26 08:40 | 33.31382 | -88.37431 | 35938 ft | 472 kts | 209° |
| 2026-04-26 08:40 | 33.25272 | -88.40233 | 35937 ft | 471 kts | 210° |
| 2026-04-26 08:41 | 33.19174 | -88.43058 | 35937 ft | 471 kts | 210° |
| 2026-04-26 08:41 | 33.13108 | -88.45921 | 35940 ft | 470 kts | 210° |
| 2026-04-26 08:42 | 33.07043 | -88.48798 | 35934 ft | 470 kts | 210° |
| 2026-04-26 08:42 | 33.00962 | -88.51649 | 35925 ft | 471 kts | 210° |
| 2026-04-26 08:43 | 32.94858 | -88.54450 | 35924 ft | 470 kts | 209° |
| 2026-04-26 08:43 | 32.88758 | -88.57165 | 35918 ft | 469 kts | 208° |
| 2026-04-26 08:44 | 32.82673 | -88.59894 | 35914 ft | 469 kts | 209° |
| 2026-04-26 08:44 | 32.76590 | -88.62627 | 35910 ft | 468 kts | 209° |
| 2026-04-26 08:45 | 32.70554 | -88.65474 | 35910 ft | 468 kts | 210° |
| 2026-04-26 08:45 | 32.64498 | -88.68298 | 35909 ft | 469 kts | 209° |
| 2026-04-26 08:46 | 32.58435 | -88.71087 | 35909 ft | 469 kts | 209° |
| 2026-04-26 08:46 | 32.52346 | -88.73856 | 35910 ft | 470 kts | 209° |
| 2026-04-26 08:47 | 32.46253 | -88.76597 | 35910 ft | 470 kts | 208° |
| 2026-04-26 08:47 | 32.40141 | -88.79344 | 35911 ft | 472 kts | 207° |
| 2026-04-26 08:48 | 32.34318 | -88.82627 | 35910 ft | 458 kts | 218° |
| 2026-04-26 08:48 | 32.29040 | -88.86733 | 35909 ft | 453 kts | 221° |
| 2026-04-26 08:49 | 32.23849 | -88.90925 | 35908 ft | 453 kts | 221° |
| 2026-04-26 08:49 | 32.18670 | -88.95121 | 35906 ft | 453 kts | 221° |
| 2026-04-26 08:50 | 32.13441 | -88.99237 | 35905 ft | 454 kts | 220° |
| 2026-04-26 08:50 | 32.08168 | -89.03313 | 35903 ft | 454 kts | 220° |
| 2026-04-26 08:51 | 32.00256 | -89.09437 | 35901 ft | 455 kts | 219° |
| 2026-04-26 08:52 | 31.94927 | -89.13449 | 35903 ft | 456 kts | 219° |
| 2026-04-26 08:52 | 31.89574 | -89.17436 | 35904 ft | 456 kts | 219° |
| 2026-04-26 08:53 | 31.84228 | -89.21437 | 35905 ft | 456 kts | 219° |
| 2026-04-26 08:53 | 31.78912 | -89.25468 | 35905 ft | 455 kts | 220° |
| 2026-04-26 08:54 | 31.73641 | -89.29554 | 35905 ft | 455 kts | 220° |
| 2026-04-26 08:54 | 31.68362 | -89.33630 | 35905 ft | 455 kts | 220° |
| 2026-04-26 08:55 | 31.63075 | -89.37696 | 35905 ft | 456 kts | 220° |
| 2026-04-26 08:55 | 31.57757 | -89.41734 | 35905 ft | 456 kts | 220° |
| 2026-04-26 08:56 | 31.52440 | -89.45743 | 35905 ft | 456 kts | 220° |
| 2026-04-26 08:56 | 31.47111 | -89.49735 | 35905 ft | 456 kts | 219° |
| 2026-04-26 08:57 | 31.41770 | -89.53706 | 35905 ft | 456 kts | 219° |
| 2026-04-26 08:57 | 31.36419 | -89.57655 | 35905 ft | 456 kts | 219° |
| 2026-04-26 08:58 | 31.31065 | -89.61611 | 35905 ft | 455 kts | 220° |
| 2026-04-26 08:58 | 31.25782 | -89.65656 | 35906 ft | 455 kts | 220° |
| 2026-04-26 08:59 | 31.20476 | -89.69677 | 35906 ft | 456 kts | 220° |
| 2026-04-26 08:59 | 31.15152 | -89.73664 | 35906 ft | 453 kts | 218° |
| 2026-04-26 09:00 | 31.09839 | -89.77560 | 35906 ft | 452 kts | 218° |
| 2026-04-26 09:00 | 31.04545 | -89.81484 | 35905 ft | 452 kts | 219° |
| 2026-04-26 09:01 | 30.99288 | -89.85484 | 35905 ft | 452 kts | 219° |
| 2026-04-26 09:01 | 30.94007 | -89.89452 | 35904 ft | 453 kts | 219° |
| 2026-04-26 09:02 | 30.88708 | -89.93395 | 35904 ft | 454 kts | 218° |
| 2026-04-26 09:02 | 30.83387 | -89.97319 | 35901 ft | 454 kts | 218° |
| 2026-04-26 09:03 | 30.78068 | -90.01211 | 35897 ft | 454 kts | 218° |
| 2026-04-26 09:03 | 30.72739 | -90.05113 | 35887 ft | 453 kts | 219° |
| 2026-04-26 09:04 | 30.67474 | -90.09088 | 35885 ft | 452 kts | 219° |
| 2026-04-26 09:04 | 30.62190 | -90.13031 | 35881 ft | 453 kts | 218° |
| 2026-04-26 09:05 | 30.56889 | -90.16943 | 35881 ft | 453 kts | 218° |
| 2026-04-26 09:05 | 30.51566 | -90.20836 | 35881 ft | 453 kts | 218° |
| 2026-04-26 09:06 | 30.46228 | -90.24708 | 35881 ft | 453 kts | 218° |
| 2026-04-26 09:06 | 30.40904 | -90.28585 | 35881 ft | 453 kts | 219° |
| 2026-04-26 09:07 | 30.35630 | -90.32539 | 35880 ft | 453 kts | 219° |
| 2026-04-26 09:07 | 30.30349 | -90.36485 | 35878 ft | 453 kts | 219° |
| 2026-04-26 09:08 | 30.25043 | -90.40407 | 35875 ft | 453 kts | 218° |
| 2026-04-26 09:08 | 30.19729 | -90.44299 | 35873 ft | 454 kts | 218° |
| 2026-04-26 09:09 | 30.14389 | -90.48181 | 35872 ft | 455 kts | 219° |
| 2026-04-26 09:09 | 30.09066 | -90.52103 | 35874 ft | 455 kts | 219° |
| 2026-04-26 09:10 | 30.03720 | -90.56000 | 35874 ft | 456 kts | 218° |
| 2026-04-26 09:10 | 29.98319 | -90.59820 | 35874 ft | 457 kts | 218° |
| 2026-04-26 09:11 | 29.92935 | -90.63668 | 35873 ft | 456 kts | 219° |
| 2026-04-26 09:11 | 29.87574 | -90.67543 | 35873 ft | 453 kts | 221° |
| 2026-04-26 09:12 | 29.82281 | -90.71372 | 35884 ft | 449 kts | 221° |
| 2026-04-26 09:12 | 29.77015 | -90.75208 | 35881 ft | 450 kts | 221° |
| 2026-04-26 09:13 | 29.71708 | -90.79020 | 35880 ft | 451 kts | 221° |
| 2026-04-26 09:13 | 29.66455 | -90.82894 | 35879 ft | 445 kts | 226° |
| 2026-04-26 09:14 | 29.62050 | -90.87651 | 35880 ft | 432 kts | 236° |
| 2026-04-26 09:14 | 29.58043 | -90.92764 | 35879 ft | 431 kts | 237° |
| 2026-04-26 09:15 | 29.54097 | -90.97906 | 35878 ft | 431 kts | 237° |
| 2026-04-26 09:15 | 29.50083 | -91.03013 | 35877 ft | 432 kts | 236° |
| 2026-04-26 09:16 | 29.45990 | -91.08052 | 35875 ft | 433 kts | 236° |
| 2026-04-26 09:16 | 29.41862 | -91.13065 | 35873 ft | 433 kts | 235° |
| 2026-04-26 09:17 | 29.37707 | -91.18060 | 35871 ft | 434 kts | 235° |
| 2026-04-26 09:17 | 29.33552 | -91.23058 | 35874 ft | 435 kts | 237° |
| 2026-04-26 09:18 | 29.29464 | -91.28140 | 35877 ft | 435 kts | 237° |
| 2026-04-26 09:18 | 29.25371 | -91.33221 | 35880 ft | 435 kts | 237° |
| 2026-04-26 09:19 | 29.21244 | -91.38291 | 35881 ft | 436 kts | 236° |
| 2026-04-26 09:19 | 29.17094 | -91.43340 | 35881 ft | 437 kts | 236° |
| 2026-04-26 09:20 | 29.12917 | -91.48402 | 35881 ft | 441 kts | 236° |
| 2026-04-26 09:20 | 29.08707 | -91.53486 | 35880 ft | 441 kts | 236° |
| 2026-04-26 09:21 | 29.04489 | -91.58547 | 35880 ft | 441 kts | 236° |
| 2026-04-26 09:21 | 29.00261 | -91.63586 | 35879 ft | 441 kts | 235° |
| 2026-04-26 09:22 | 28.96008 | -91.68618 | 35878 ft | 440 kts | 235° |
| 2026-04-26 09:22 | 28.91838 | -91.73697 | 35877 ft | 439 kts | 236° |
| 2026-04-26 09:23 | 28.87678 | -91.78781 | 35875 ft | 440 kts | 236° |
| 2026-04-26 09:23 | 28.83487 | -91.83846 | 35874 ft | 440 kts | 236° |
| 2026-04-26 09:24 | 28.79277 | -91.88890 | 35873 ft | 440 kts | 236° |
| 2026-04-26 09:24 | 28.75043 | -91.93953 | 35872 ft | 446 kts | 235° |
| 2026-04-26 09:25 | 28.70809 | -91.99092 | 35872 ft | 443 kts | 236° |
| 2026-04-26 09:25 | 28.66590 | -92.04136 | 35874 ft | 440 kts | 235° |
| 2026-04-26 09:26 | 28.62338 | -92.09132 | 35870 ft | 441 kts | 235° |
| 2026-04-26 09:26 | 28.58062 | -92.14131 | 35870 ft | 441 kts | 235° |
| 2026-04-26 09:27 | 28.53884 | -92.19192 | 35872 ft | 440 kts | 236° |
| 2026-04-26 09:27 | 28.49703 | -92.24247 | 35871 ft | 440 kts | 236° |
| 2026-04-26 09:28 | 28.45495 | -92.29284 | 35861 ft | 441 kts | 236° |
| 2026-04-26 09:28 | 28.41232 | -92.34346 | 35853 ft | 447 kts | 234° |
| 2026-04-26 09:29 | 28.36957 | -92.39451 | 35865 ft | 447 kts | 235° |
| 2026-04-26 09:29 | 28.32664 | -92.44528 | 35868 ft | 447 kts | 234° |
| 2026-04-26 09:30 | 28.28375 | -92.49602 | 35860 ft | 447 kts | 235° |
| 2026-04-26 09:30 | 28.24072 | -92.54671 | 35854 ft | 448 kts | 234° |
| 2026-04-26 09:31 | 28.19742 | -92.59723 | 35858 ft | 447 kts | 234° |
| 2026-04-26 09:31 | 28.15417 | -92.64755 | 35870 ft | 447 kts | 234° |
| 2026-04-26 09:32 | 28.11124 | -92.69817 | 35871 ft | 447 kts | 235° |
| 2026-04-26 09:32 | 28.06866 | -92.74916 | 35861 ft | 447 kts | 235° |
| 2026-04-26 09:33 | 28.02565 | -92.79975 | 35863 ft | 447 kts | 234° |
| 2026-04-26 09:33 | 27.98234 | -92.84996 | 35871 ft | 447 kts | 234° |
| 2026-04-26 09:34 | 27.93876 | -92.89999 | 35864 ft | 448 kts | 234° |
| 2026-04-26 09:34 | 27.89563 | -92.95035 | 35875 ft | 446 kts | 235° |
| 2026-04-26 09:35 | 27.85305 | -93.00117 | 35887 ft | 446 kts | 235° |
| 2026-04-26 09:35 | 27.81014 | -93.05176 | 35889 ft | 447 kts | 234° |
| 2026-04-26 09:36 | 27.76700 | -93.10216 | 35870 ft | 448 kts | 234° |
| 2026-04-26 09:36 | 27.72366 | -93.15237 | 35875 ft | 447 kts | 234° |
| 2026-04-26 09:37 | 27.68018 | -93.20235 | 35869 ft | 448 kts | 234° |
| 2026-04-26 09:37 | 27.63649 | -93.25225 | 35852 ft | 449 kts | 234° |
| 2026-04-26 09:38 | 27.59312 | -93.30218 | 35836 ft | 446 kts | 233° |
| 2026-04-26 09:38 | 27.55036 | -93.35272 | 35825 ft | 447 kts | 233° |
| 2026-04-26 09:39 | 27.50733 | -93.40305 | 35824 ft | 447 kts | 232° |
| 2026-04-26 09:39 | 27.46405 | -93.45319 | 35821 ft | 448 kts | 232° |
| 2026-04-26 09:40 | 27.42061 | -93.50313 | 35821 ft | 448 kts | 232° |
| 2026-04-26 09:40 | 27.37695 | -93.55294 | 35822 ft | 448 kts | 232° |
| 2026-04-26 09:41 | 27.33312 | -93.60260 | 35822 ft | 448 kts | 232° |
| 2026-04-26 09:41 | 27.28962 | -93.65250 | 35821 ft | 447 kts | 233° |
| 2026-04-26 09:42 | 27.24672 | -93.70286 | 35820 ft | 447 kts | 233° |
| 2026-04-26 09:42 | 27.20367 | -93.75314 | 35818 ft | 448 kts | 232° |
| 2026-04-26 09:43 | 27.16033 | -93.80317 | 35814 ft | 448 kts | 232° |
| 2026-04-26 09:43 | 27.11677 | -93.85299 | 35809 ft | 448 kts | 232° |
| 2026-04-26 09:44 | 27.07286 | -93.90239 | 35802 ft | 449 kts | 231° |
| 2026-04-26 09:44 | 27.02880 | -93.95170 | 35798 ft | 449 kts | 231° |
| 2026-04-26 09:45 | 26.98482 | -94.00112 | 35794 ft | 448 kts | 232° |
| 2026-04-26 09:45 | 26.94167 | -94.05121 | 35780 ft | 448 kts | 232° |
| 2026-04-26 09:46 | 26.89843 | -94.10085 | 35779 ft | 445 kts | 230° |
| 2026-04-26 09:46 | 26.85488 | -94.14995 | 35778 ft | 445 kts | 229° |
| 2026-04-26 09:47 | 26.81110 | -94.19878 | 35777 ft | 446 kts | 229° |
| 2026-04-26 09:47 | 26.76790 | -94.24827 | 35767 ft | 446 kts | 230° |
| 2026-04-26 09:48 | 26.72462 | -94.29779 | 35767 ft | 446 kts | 230° |
| 2026-04-26 09:48 | 26.68090 | -94.34693 | 35767 ft | 447 kts | 229° |
| 2026-04-26 09:49 | 26.63702 | -94.39586 | 35768 ft | 446 kts | 229° |
| 2026-04-26 09:49 | 26.59377 | -94.44537 | 35767 ft | 446 kts | 230° |
| 2026-04-26 09:50 | 26.55060 | -94.49484 | 35765 ft | 446 kts | 230° |
| 2026-04-26 09:50 | 26.50742 | -94.54441 | 35766 ft | 446 kts | 230° |
| 2026-04-26 09:51 | 26.46407 | -94.59364 | 35767 ft | 446 kts | 230° |
| 2026-04-26 09:51 | 26.42023 | -94.64265 | 35767 ft | 449 kts | 229° |
| 2026-04-26 09:52 | 26.37599 | -94.69190 | 35766 ft | 451 kts | 229° |
| 2026-04-26 09:52 | 26.30898 | -94.76554 | 35765 ft | 452 kts | 229° |
| 2026-04-26 09:53 | 26.26452 | -94.81482 | 35764 ft | 452 kts | 229° |
| 2026-04-26 09:53 | 26.22059 | -94.86460 | 35762 ft | 451 kts | 230° |
| 2026-04-26 09:54 | 26.17672 | -94.91445 | 35762 ft | 451 kts | 230° |
| 2026-04-26 09:54 | 26.13265 | -94.96395 | 35765 ft | 451 kts | 229° |
| 2026-04-26 09:55 | 26.08834 | -95.01328 | 35766 ft | 451 kts | 229° |
| 2026-04-26 09:55 | 26.04391 | -95.06235 | 35768 ft | 451 kts | 229° |
| 2026-04-26 09:56 | 25.99931 | -95.11124 | 35769 ft | 451 kts | 229° |
| 2026-04-26 09:56 | 25.95460 | -95.15996 | 35771 ft | 451 kts | 229° |
| 2026-04-26 09:57 | 25.91065 | -95.20946 | 35775 ft | 451 kts | 230° |
| 2026-04-26 09:57 | 25.86671 | -95.25889 | 35776 ft | 451 kts | 229° |
| 2026-04-26 09:58 | 25.82298 | -95.30805 | 35777 ft | 443 kts | 231° |
| 2026-04-26 09:58 | 25.77984 | -95.35645 | 35778 ft | 443 kts | 231° |
| 2026-04-26 09:59 | 25.74325 | -95.39624 | 35780 ft | 444 kts | 230° |
| 2026-04-26 09:59 | 25.69186 | -95.45191 | 35801 ft | 444 kts | 230° |
| 2026-04-26 10:00 | 25.64792 | -95.49984 | 35804 ft | 444 kts | 231° |
| 2026-04-26 10:00 | 25.60035 | -95.54406 | 35808 ft | 453 kts | 220° |
| 2026-04-26 10:01 | 25.54720 | -95.58181 | 35806 ft | 455 kts | 218° |
| 2026-04-26 10:01 | 25.49355 | -95.61871 | 35803 ft | 455 kts | 218° |
| 2026-04-26 10:02 | 25.44031 | -95.65618 | 35807 ft | 454 kts | 219° |
| 2026-04-26 10:02 | 25.38737 | -95.69397 | 35807 ft | 454 kts | 219° |
| 2026-04-26 10:03 | 25.33427 | -95.73161 | 35805 ft | 455 kts | 218° |
| 2026-04-26 10:03 | 25.28151 | -95.76965 | 35804 ft | 453 kts | 220° |
| 2026-04-26 10:04 | 25.22917 | -95.80820 | 35803 ft | 453 kts | 219° |
| 2026-04-26 10:04 | 25.17657 | -95.84645 | 35802 ft | 453 kts | 219° |
| 2026-04-26 10:05 | 25.12385 | -95.88440 | 35801 ft | 454 kts | 219° |
| 2026-04-26 10:05 | 25.07099 | -95.92211 | 35800 ft | 454 kts | 219° |
| 2026-04-26 10:06 | 25.01797 | -95.95962 | 35800 ft | 454 kts | 219° |
| 2026-04-26 10:06 | 24.96498 | -95.99716 | 35803 ft | 454 kts | 219° |
| 2026-04-26 10:07 | 24.91248 | -96.03544 | 35806 ft | 454 kts | 219° |
| 2026-04-26 10:07 | 24.85975 | -96.07339 | 35805 ft | 454 kts | 219° |
| 2026-04-26 10:08 | 24.80666 | -96.11091 | 35806 ft | 455 kts | 218° |
| 2026-04-26 10:08 | 24.75336 | -96.14812 | 35804 ft | 455 kts | 218° |
| 2026-04-26 10:09 | 24.70026 | -96.18553 | 35804 ft | 454 kts | 219° |
| 2026-04-26 10:09 | 24.64767 | -96.22363 | 35802 ft | 454 kts | 220° |
| 2026-04-26 10:10 | 24.59508 | -96.26181 | 35800 ft | 454 kts | 219° |
| 2026-04-26 10:10 | 24.54232 | -96.29977 | 35799 ft | 455 kts | 219° |
| 2026-04-26 10:11 | 24.48904 | -96.33683 | 35798 ft | 455 kts | 218° |
| 2026-04-26 10:11 | 24.43589 | -96.37408 | 35797 ft | 454 kts | 218° |
| 2026-04-26 10:12 | 24.38272 | -96.41121 | 35796 ft | 454 kts | 218° |
| 2026-04-26 10:12 | 24.32940 | -96.44820 | 35795 ft | 454 kts | 218° |
| 2026-04-26 10:13 | 24.27649 | -96.48569 | 35794 ft | 453 kts | 219° |
| 2026-04-26 10:13 | 24.22395 | -96.52362 | 35799 ft | 453 kts | 219° |
| 2026-04-26 10:14 | 24.17132 | -96.56135 | 35805 ft | 454 kts | 219° |
| 2026-04-26 10:14 | 24.11834 | -96.59857 | 35808 ft | 454 kts | 218° |
| 2026-04-26 10:15 | 24.06511 | -96.63545 | 35807 ft | 454 kts | 218° |
| 2026-04-26 10:15 | 24.01169 | -96.67212 | 35807 ft | 454 kts | 218° |
| 2026-04-26 10:16 | 23.95856 | -96.70918 | 35807 ft | 453 kts | 219° |
| 2026-04-26 10:16 | 23.90594 | -96.74696 | 35806 ft | 453 kts | 219° |
| 2026-04-26 10:17 | 23.85331 | -96.78461 | 35819 ft | 454 kts | 219° |
| 2026-04-26 10:17 | 23.80037 | -96.82200 | 35821 ft | 455 kts | 219° |
| 2026-04-26 10:18 | 23.74714 | -96.85922 | 35823 ft | 456 kts | 218° |
| 2026-04-26 10:18 | 23.69343 | -96.89617 | 35826 ft | 461 kts | 218° |
| 2026-04-26 10:19 | 23.63902 | -96.93320 | 35829 ft | 462 kts | 218° |
| 2026-04-26 10:19 | 23.58476 | -96.97029 | 35831 ft | 461 kts | 218° |
| 2026-04-26 10:20 | 23.54005 | -97.00197 | 35832 ft | 460 kts | 219° |
| 2026-04-26 10:20 | 23.47761 | -97.04624 | 35834 ft | 460 kts | 219° |
| 2026-04-26 10:21 | 23.42386 | -97.08384 | 35835 ft | 460 kts | 219° |
| 2026-04-26 10:21 | 23.36992 | -97.12124 | 35836 ft | 460 kts | 218° |
| 2026-04-26 10:22 | 23.31588 | -97.15838 | 35837 ft | 461 kts | 218° |
| 2026-04-26 10:22 | 23.26175 | -97.19529 | 35838 ft | 461 kts | 218° |
| 2026-04-26 10:23 | 23.20756 | -97.23222 | 35839 ft | 460 kts | 218° |
| 2026-04-26 10:23 | 23.15388 | -97.26972 | 35840 ft | 460 kts | 219° |
| 2026-04-26 10:24 | 23.10043 | -97.30753 | 35842 ft | 460 kts | 219° |
| 2026-04-26 10:24 | 23.04686 | -97.34518 | 35842 ft | 460 kts | 219° |
| 2026-04-26 10:25 | 22.99288 | -97.38240 | 35843 ft | 461 kts | 218° |
| 2026-04-26 10:25 | 22.93863 | -97.41915 | 35843 ft | 461 kts | 218° |
| 2026-04-26 10:26 | 22.88420 | -97.45570 | 35843 ft | 461 kts | 218° |
| 2026-04-26 10:26 | 22.82989 | -97.49253 | 35842 ft | 461 kts | 218° |
| 2026-04-26 10:27 | 22.77595 | -97.52970 | 35842 ft | 460 kts | 219° |
| 2026-04-26 10:27 | 22.72242 | -97.56747 | 35841 ft | 461 kts | 219° |
| 2026-04-26 10:28 | 22.66849 | -97.60486 | 35840 ft | 461 kts | 218° |
| 2026-04-26 10:28 | 22.61414 | -97.64159 | 35839 ft | 462 kts | 218° |
| 2026-04-26 10:29 | 22.55955 | -97.67809 | 35838 ft | 462 kts | 218° |
| 2026-04-26 10:29 | 22.50511 | -97.71483 | 35838 ft | 462 kts | 219° |
| 2026-04-26 10:30 | 22.45116 | -97.75242 | 35817 ft | 463 kts | 219° |
| 2026-04-26 10:30 | 22.39724 | -97.78991 | 35812 ft | 461 kts | 219° |
| 2026-04-26 10:31 | 22.34327 | -97.82712 | 35824 ft | 462 kts | 218° |
| 2026-04-26 10:31 | 22.28781 | -97.86231 | 35824 ft | 470 kts | 209° |
| 2026-04-26 10:32 | 22.22402 | -97.88114 | 35814 ft | 482 kts | 196° |
| 2026-04-26 10:32 | 22.15774 | -97.89227 | 35808 ft | 484 kts | 194° |
| 2026-04-26 10:33 | 22.09155 | -97.90368 | 35813 ft | 482 kts | 195° |
| 2026-04-26 10:33 | 22.02570 | -97.91645 | 35823 ft | 482 kts | 196° |
| 2026-04-26 10:34 | 21.96001 | -97.92965 | 35816 ft | 481 kts | 197° |
| 2026-04-26 10:34 | 21.89463 | -97.94371 | 35835 ft | 481 kts | 197° |
| 2026-04-26 10:35 | 21.82914 | -97.95762 | 35857 ft | 481 kts | 197° |
| 2026-04-26 10:35 | 21.76366 | -97.97157 | 35838 ft | 481 kts | 197° |
| 2026-04-26 10:36 | 21.69805 | -97.98504 | 35862 ft | 482 kts | 196° |
| 2026-04-26 10:36 | 21.63218 | -97.99774 | 35853 ft | 482 kts | 196° |
| 2026-04-26 10:37 | 21.56632 | -98.01040 | 35868 ft | 481 kts | 196° |
| 2026-04-26 10:37 | 21.50058 | -98.02338 | 35891 ft | 482 kts | 197° |
| 2026-04-26 10:38 | 21.43507 | -98.03740 | 35896 ft | 481 kts | 197° |
| 2026-04-26 10:38 | 21.36965 | -98.05135 | 35918 ft | 480 kts | 197° |
| 2026-04-26 10:39 | 21.30423 | -98.06509 | 35945 ft | 479 kts | 195° |
| 2026-04-26 10:39 | 21.24163 | -98.08547 | 35962 ft | 465 kts | 214° |
| 2026-04-26 10:40 | 21.18919 | -98.12462 | 35991 ft | 460 kts | 222° |
| 2026-04-26 10:40 | 21.13801 | -98.16572 | 35985 ft | 462 kts | 220° |
| 2026-04-26 10:41 | 21.08508 | -98.20422 | 35810 ft | 457 kts | 218° |
| 2026-04-26 10:41 | 21.05874 | -98.22276 | 35398 ft | 453 kts | 218° |
| 2026-04-26 10:41 | 21.03250 | -98.24107 | 34804 ft | 450 kts | 218° |
| 2026-04-26 10:42 | 21.00641 | -98.25924 | 34199 ft | 447 kts | 218° |
| 2026-04-26 10:42 | 20.98052 | -98.27731 | 33619 ft | 444 kts | 218° |
| 2026-04-26 10:42 | 20.95485 | -98.29536 | 33062 ft | 440 kts | 218° |
| 2026-04-26 10:42 | 20.92946 | -98.31318 | 32523 ft | 436 kts | 217° |
| 2026-04-26 10:43 | 20.90416 | -98.33073 | 31995 ft | 432 kts | 217° |
| 2026-04-26 10:43 | 20.87897 | -98.34785 | 31478 ft | 428 kts | 216° |
| 2026-04-26 10:43 | 20.85402 | -98.36473 | 30966 ft | 424 kts | 217° |
| 2026-04-26 10:43 | 20.82932 | -98.38156 | 30459 ft | 420 kts | 217° |
| 2026-04-26 10:44 | 20.80494 | -98.39828 | 29954 ft | 416 kts | 217° |
| 2026-04-26 10:44 | 20.78079 | -98.41494 | 29453 ft | 412 kts | 217° |
| 2026-04-26 10:44 | 20.75696 | -98.43151 | 28959 ft | 408 kts | 217° |
| 2026-04-26 10:44 | 20.73336 | -98.44795 | 28466 ft | 404 kts | 217° |
| 2026-04-26 10:45 | 20.71000 | -98.46423 | 27978 ft | 401 kts | 217° |
| 2026-04-26 10:45 | 20.68686 | -98.48047 | 27487 ft | 398 kts | 217° |
| 2026-04-26 10:45 | 20.66380 | -98.49659 | 26932 ft | 397 kts | 217° |
| 2026-04-26 10:45 | 20.64070 | -98.51259 | 26358 ft | 396 kts | 216° |
| 2026-04-26 10:46 | 20.61767 | -98.52847 | 25821 ft | 395 kts | 216° |
| 2026-04-26 10:46 | 20.59465 | -98.54418 | 25316 ft | 392 kts | 215° |
| 2026-04-26 10:46 | 20.57171 | -98.55966 | 24835 ft | 390 kts | 214° |
| 2026-04-26 10:46 | 20.54895 | -98.57502 | 24360 ft | 387 kts | 214° |
| 2026-04-26 10:47 | 20.52643 | -98.59035 | 23892 ft | 383 kts | 214° |
| 2026-04-26 10:47 | 20.50427 | -98.60580 | 23430 ft | 380 kts | 215° |
| 2026-04-26 10:47 | 20.48234 | -98.62124 | 22974 ft | 377 kts | 215° |
| 2026-04-26 10:47 | 20.46070 | -98.63660 | 22524 ft | 373 kts | 215° |
| 2026-04-26 10:48 | 20.43923 | -98.65180 | 22078 ft | 369 kts | 214° |
| 2026-04-26 10:48 | 20.41796 | -98.66675 | 21638 ft | 366 kts | 214° |
| 2026-04-26 10:48 | 20.39678 | -98.68154 | 21203 ft | 363 kts | 214° |
| 2026-04-26 10:48 | 20.37578 | -98.69614 | 20771 ft | 360 kts | 214° |
| 2026-04-26 10:49 | 20.35489 | -98.71063 | 20339 ft | 357 kts | 214° |
| 2026-04-26 10:49 | 20.33418 | -98.72496 | 19911 ft | 355 kts | 214° |
| 2026-04-26 10:49 | 20.31363 | -98.73915 | 19486 ft | 352 kts | 214° |
| 2026-04-26 10:49 | 20.29318 | -98.75325 | 19065 ft | 350 kts | 214° |
| 2026-04-26 10:50 | 20.27281 | -98.76729 | 18647 ft | 348 kts | 213° |
| 2026-04-26 10:50 | 20.25933 | -98.77658 | 18369 ft | 347 kts | 213° |
| 2026-04-26 10:50 | 20.23310 | -98.79586 | 17868 ft | 342 kts | 222° |
| 2026-04-26 10:50 | 20.21899 | -98.81545 | 17687 ft | 332 kts | 243° |
| 2026-04-26 10:51 | 20.21148 | -98.83847 | 17615 ft | 331 kts | 257° |
| 2026-04-26 10:51 | 20.20495 | -98.88732 | 17596 ft | 337 kts | 264° |
| 2026-04-26 10:51 | 20.20250 | -98.91211 | 17596 ft | 335 kts | 266° |
| 2026-04-26 10:52 | 20.20194 | -98.93647 | 17557 ft | 326 kts | 272° |
| 2026-04-26 10:52 | 20.20302 | -98.96024 | 17541 ft | 321 kts | 275° |
| 2026-04-26 10:52 | 20.20468 | -98.98399 | 17556 ft | 324 kts | 275° |
| 2026-04-26 10:52 | 20.20644 | -99.00793 | 17565 ft | 326 kts | 275° |
| 2026-04-26 10:53 | 20.20825 | -99.03200 | 17569 ft | 327 kts | 275° |
| 2026-04-26 10:53 | 20.20990 | -99.05615 | 17543 ft | 329 kts | 275° |
| 2026-04-26 10:53 | 20.21142 | -99.08038 | 17382 ft | 330 kts | 275° |
| 2026-04-26 10:54 | 20.21382 | -99.12878 | 16893 ft | 324 kts | 269° |
| 2026-04-26 10:54 | 20.20909 | -99.15177 | 16622 ft | 318 kts | 247° |
| 2026-04-26 10:54 | 20.19663 | -99.17067 | 16347 ft | 311 kts | 224° |
| 2026-04-26 10:54 | 20.17865 | -99.18273 | 16074 ft | 305 kts | 203° |
| 2026-04-26 10:55 | 20.15853 | -99.18909 | 15815 ft | 300 kts | 192° |
| 2026-04-26 10:55 | 20.13822 | -99.19277 | 15541 ft | 295 kts | 188° |
| 2026-04-26 10:55 | 20.11797 | -99.19563 | 15243 ft | 292 kts | 187° |
| 2026-04-26 10:55 | 20.10465 | -99.19741 | 15046 ft | 290 kts | 187° |
| 2026-04-26 10:56 | 20.07816 | -99.20095 | 14649 ft | 287 kts | 187° |
| 2026-04-26 10:56 | 20.05851 | -99.20355 | 14351 ft | 284 kts | 187° |
| 2026-04-26 10:56 | 20.03907 | -99.20617 | 14055 ft | 280 kts | 187° |
| 2026-04-26 10:56 | 20.01997 | -99.20884 | 13771 ft | 275 kts | 187° |
| 2026-04-26 10:57 | 20.00124 | -99.21148 | 13495 ft | 270 kts | 187° |
| 2026-04-26 10:57 | 19.98287 | -99.21413 | 13222 ft | 264 kts | 187° |
| 2026-04-26 10:57 | 19.96491 | -99.21682 | 12952 ft | 260 kts | 187° |
| 2026-04-26 10:57 | 19.94716 | -99.21956 | 12701 ft | 258 kts | 188° |
| 2026-04-26 10:58 | 19.92951 | -99.22251 | 12450 ft | 257 kts | 188° |
| 2026-04-26 10:58 | 19.91190 | -99.22556 | 12200 ft | 257 kts | 188° |
| 2026-04-26 10:58 | 19.89421 | -99.22753 | 11955 ft | 256 kts | 182° |
| 2026-04-26 10:58 | 19.87656 | -99.22711 | 11730 ft | 254 kts | 176° |
| 2026-04-26 10:59 | 19.85907 | -99.22526 | 11506 ft | 252 kts | 173° |
| 2026-04-26 10:59 | 19.84180 | -99.22277 | 11283 ft | 251 kts | 172° |
| 2026-04-26 10:59 | 19.82484 | -99.22009 | 11057 ft | 243 kts | 172° |
| 2026-04-26 10:59 | 19.80880 | -99.21576 | 10840 ft | 235 kts | 162° |
| 2026-04-26 11:00 | 19.79418 | -99.20882 | 10640 ft | 227 kts | 154° |
| 2026-04-26 11:00 | 19.78057 | -99.20101 | 10443 ft | 218 kts | 152° |
| 2026-04-26 11:00 | 19.76775 | -99.19327 | 10239 ft | 207 kts | 151° |
| 2026-04-26 11:00 | 19.75562 | -99.18590 | 10039 ft | 197 kts | 151° |
| 2026-04-26 11:01 | 19.74396 | -99.17880 | 9838 ft | 191 kts | 151° |
| 2026-04-26 11:01 | 19.73277 | -99.17194 | 9641 ft | 181 kts | 151° |
| 2026-04-26 11:01 | 19.72229 | -99.16551 | 9443 ft | 168 kts | 151° |
| 2026-04-26 11:01 | 19.71251 | -99.15954 | 9246 ft | 159 kts | 151° |
| 2026-04-26 11:02 | 19.70299 | -99.15376 | 9128 ft | 157 kts | 151° |
| 2026-04-26 11:02 | 19.69346 | -99.14802 | 9103 ft | 159 kts | 151° |
| 2026-04-26 11:02 | 19.68376 | -99.14227 | 9101 ft | 161 kts | 152° |
| 2026-04-26 11:02 | 19.67518 | -99.13481 | 9118 ft | 162 kts | 128° |
| 2026-04-26 11:03 | 19.67288 | -99.12322 | 9152 ft | 166 kts | 88° |
| 2026-04-26 11:03 | 19.67710 | -99.11182 | 9120 ft | 170 kts | 61° |
| 2026-04-26 11:03 | 19.68406 | -99.10153 | 8905 ft | 173 kts | 53° |
| 2026-04-26 11:03 | 19.69156 | -99.09174 | 8654 ft | 169 kts | 50° |
| 2026-04-26 11:04 | 19.69904 | -99.08241 | 8452 ft | 166 kts | 49° |
| 2026-04-26 11:04 | 19.70663 | -99.07330 | 8247 ft | 164 kts | 49° |
| 2026-04-26 11:04 | 19.71413 | -99.06410 | 8037 ft | 167 kts | 49° |
| 2026-04-26 11:04 | 19.72185 | -99.05489 | 7794 ft | 166 kts | 49° |
| 2026-04-26 11:05 | 19.72939 | -99.04577 | 7567 ft | 163 kts | 51° |
| 2026-04-26 11:05 | 19.73664 | -99.03677 | 7401 ft | 160 kts | 50° |
| 2026-04-26 11:05 | 19.74348 | -99.02841 | 7376 ft | 138 kts | 50° |
| 2026-04-26 11:05 | 19.74831 | -99.02259 | 7376 ft | 85 kts | 51° |
| 2026-04-26 11:06 | 19.75107 | -99.01898 | 7376 ft | 52 kts | 50° |
| 2026-04-26 11:06 | 19.75251 | -99.01725 | 7376 ft | 41 kts | 47° |
| 2026-04-26 11:06 | 19.75410 | -99.01538 | 7376 ft | 14 kts | 50° |
| 2026-04-26 11:06 | 19.75395 | -99.01477 | 7376 ft | 8 kts | 135° |
| 2026-04-26 11:07 | 19.75356 | -99.01440 | 7376 ft | 7 kts | 139° |
| 2026-04-26 11:07 | 19.75328 | -99.01405 | 7376 ft | 5 kts | 99° |
| 2026-04-26 11:07 | 19.75341 | -99.01371 | 7376 ft | 5 kts | 53° |
| 2026-04-26 11:07 | 19.75363 | -99.01341 | 7376 ft | 5 kts | 50° |
| 2026-04-26 11:08 | 19.75390 | -99.01308 | 7376 ft | 7 kts | 49° |
| 2026-04-26 11:08 | 19.75423 | -99.01269 | 7376 ft | 8 kts | 50° |
| 2026-04-26 11:08 | 19.75459 | -99.01223 | 7376 ft | 9 kts | 50° |
| 2026-04-26 11:08 | 19.75500 | -99.01172 | 7376 ft | 10 kts | 49° |
| 2026-04-26 11:09 | 19.75542 | -99.01119 | 7376 ft | 7 kts | 69° |
| 2026-04-26 11:09 | 19.75521 | -99.01072 | 7376 ft | 8 kts | 138° |
| 2026-04-26 11:09 | 19.75478 | -99.01031 | 7376 ft | 9 kts | 139° |
| 2026-04-26 11:09 | 19.75428 | -99.00990 | 7376 ft | 9 kts | 147° |
| 2026-04-26 11:10 | 19.75384 | -99.00958 | 7376 ft | 6 kts | 140° |
| 2026-04-26 11:10 | 19.75370 | -99.00945 | 7376 ft | 0 kts | 139° |